Time;durP1;ratioP1;P1;durP2;ratioP2;P2;SDS_P1;SDS_P2;PMS_P1;PMS_P2;Temp;Humidity;BMP_temperature;BMP_pressure;BME280_temperature;BME280_humidity;BME280_pressure;Samples;Min_cycle;Max_cycle;Signal;HPM_P1;HPM_P2
2023/10/26 00:02:15;;;;;;;40.33;37.22;;;;;;;15.79;100.00;100097.47;5033063;28;20068;-74
2023/10/26 00:04:42;;;;;;;44.70;41.50;;;;;;;15.33;100.00;100080.94;5026467;28;20042;-74
2023/10/26 00:07:09;;;;;;;35.92;33.22;;;;;;;15.64;100.00;100091.91;5021526;28;20446;-73
2023/10/26 00:09:35;;;;;;;44.60;36.08;;;;;;;15.69;100.00;100077.81;5038951;28;20061;-74
2023/10/26 00:12:02;;;;;;;44.75;41.55;;;;;;;15.84;100.00;100069.91;5033601;28;20424;-74
2023/10/26 00:14:29;;;;;;;30.67;27.80;;;;;;;15.24;100.00;100068.28;5027794;28;20657;-74
2023/10/26 00:17:16;;;;;;;36.85;33.65;;;;;;;15.33;100.00;100069.44;5028133;28;20527;-74
2023/10/26 00:19:45;;;;;;;34.28;30.92;;;;;;;15.02;100.00;100074.47;5017399;28;20053;-74
2023/10/26 00:22:13;;;;;;;34.33;31.52;;;;;;;15.13;100.00;100064.69;5027261;28;20490;-74
2023/10/26 00:24:40;;;;;;;35.65;32.75;;;;;;;14.83;100.00;100065.16;5023186;28;20068;-74
2023/10/26 00:27:15;;;;;;;32.17;29.48;;;;;;;15.13;100.00;100064.69;5017602;28;20073;-74
2023/10/26 00:30:04;;;;;;;34.90;31.90;;;;;;;15.32;100.00;100059.81;5027001;28;20052;-74
2023/10/26 00:32:32;;;;;;;37.88;34.50;;;;;;;14.86;100.00;100068.16;5025286;28;20061;-74
2023/10/26 00:34:59;;;;;;;37.17;34.20;;;;;;;15.00;100.00;100054.38;5023749;28;20664;-74
2023/10/26 00:37:26;;;;;;;40.28;37.08;;;;;;;14.88;100.00;100063.34;5020740;28;20490;-74
2023/10/26 00:39:53;;;;;;;39.85;36.35;;;;;;;14.95;100.00;100062.34;5040493;28;20091;-74
2023/10/26 00:42:20;;;;;;;40.92;37.42;;;;;;;15.04;100.00;100048.28;5027654;28;20503;-74
2023/10/26 00:44:49;;;;;;;34.78;31.98;;;;;;;14.89;100.00;100054.28;5036367;28;20041;-74
2023/10/26 00:47:17;;;;;;;35.05;32.25;;;;;;;14.89;100.00;100053.47;5036607;28;20049;-74
2023/10/26 00:49:45;;;;;;;35.40;32.40;;;;;;;14.98;100.00;100045.81;5028104;28;20056;-73
2023/10/26 00:52:13;;;;;;;35.42;32.55;;;;;;;14.97;100.00;100036.16;5034340;28;22186;-74
2023/10/26 00:54:42;;;;;;;35.45;32.65;;;;;;;14.96;100.00;100029.22;5025900;28;20480;-73
2023/10/26 00:57:11;;;;;;;36.17;33.38;;;;;;;14.73;100.00;100033.75;5023372;28;20076;-74
2023/10/26 00:59:39;;;;;;;37.67;34.60;;;;;;;14.32;100.00;100027.09;5030055;28;20095;-74
2023/10/26 01:02:06;;;;;;;42.00;38.70;;;;;;;14.58;100.00;100026.38;5022931;28;20100;-74
2023/10/26 01:04:33;;;;;;;39.28;34.70;;;;;;;14.76;100.00;100019.88;5020287;28;20056;-74
2023/10/26 01:07:01;;;;;;;34.80;32.10;;;;;;;14.73;100.00;100019.59;5026884;28;20053;-73
2023/10/26 01:09:28;;;;;;;44.40;40.75;;;;;;;14.51;100.00;100023.06;5029339;28;20056;-74
2023/10/26 01:11:55;;;;;;;41.10;37.90;;;;;;;14.29;100.00;100027.59;5025734;28;20438;-74
2023/10/26 01:14:23;;;;;;;41.33;38.15;;;;;;;14.58;100.00;100018.38;5029688;28;20661;-74
2023/10/26 01:16:50;;;;;;;39.90;36.90;;;;;;;14.59;100.00;100013.84;5041685;28;20053;-74
2023/10/26 01:19:17;;;;;;;46.60;43.10;;;;;;;14.95;100.00;100016.88;5030015;28;20132;-78
2023/10/26 01:21:54;;;;;;;43.70;40.40;;;;;;;14.47;100.00;100016.59;5027428;28;20769;-78
2023/10/26 01:24:21;;;;;;;43.33;40.03;;;;;;;14.93;100.00;100025.16;5023444;28;20487;-79
2023/10/26 01:26:48;;;;;;;35.35;32.13;;;;;;;14.78;100.00;100033.03;5031220;28;20049;-79
2023/10/26 01:29:15;;;;;;;37.38;34.47;;;;;;;14.87;100.00;100029.66;5033107;28;20053;-79
2023/10/26 01:31:42;;;;;;;36.80;33.85;;;;;;;15.11;100.00;100034.72;5031361;28;20064;-79
2023/10/26 01:34:08;;;;;;;39.22;36.22;;;;;;;14.86;100.00;100036.06;5019722;28;20049;-78
2023/10/26 01:36:35;;;;;;;65.38;39.55;;;;;;;15.07;100.00;100033.63;5021202;28;20435;-79
2023/10/26 01:39:04;;;;;;;41.08;38.22;;;;;;;15.03;100.00;100038.63;5017140;28;20049;-79
2023/10/26 01:41:34;;;;;;;36.13;33.30;;;;;;;15.10;100.00;100033.09;5036649;28;20046;-78
2023/10/26 01:44:07;;;;;;;38.70;35.67;;;;;;;14.96;100.00;100039.91;5020394;28;20050;-79
2023/10/26 01:46:34;;;;;;;43.75;40.55;;;;;;;14.99;100.00;100042.88;5026842;28;20053;-79
2023/10/26 01:49:01;;;;;;;39.97;36.88;;;;;;;14.95;100.00;100047.13;5031843;28;20168;-79
2023/10/26 01:51:28;;;;;;;43.60;40.20;;;;;;;14.85;100.00;100036.28;5018450;28;20054;-79
2023/10/26 01:53:55;;;;;;;39.28;36.15;;;;;;;14.92;100.00;100030.75;5026472;28;20042;-78
2023/10/26 01:56:24;;;;;;;37.25;34.05;;;;;;;14.96;100.00;100026.53;5031458;28;20053;-79
2023/10/26 01:58:51;;;;;;;40.42;37.22;;;;;;;14.85;100.00;100025.59;5024864;28;20056;-79
2023/10/26 02:01:17;;;;;;;43.92;40.63;;;;;;;14.73;100.00;100031.09;5027436;28;20045;-79
2023/10/26 02:03:44;;;;;;;56.40;52.28;;;;;;;14.70;100.00;100044.13;5031188;28;20041;-78
2023/10/26 02:06:11;;;;;;;60.83;56.60;;;;;;;14.70;100.00;100041.47;5034854;28;20729;-78
2023/10/26 02:08:38;;;;;;;54.28;50.22;;;;;;;14.56;100.00;100041.06;5037134;28;20103;-79
2023/10/26 02:11:07;;;;;;;46.88;43.28;;;;;;;14.65;100.00;100040.38;5037128;28;20055;-79
2023/10/26 02:13:35;;;;;;;40.83;37.53;;;;;;;14.73;100.00;100041.78;5019397;28;20050;-79
2023/10/26 02:16:02;;;;;;;50.45;46.30;;;;;;;14.41;100.00;100041.63;5032800;28;20053;-78
2023/10/26 02:18:35;;;;;;;52.80;48.78;;;;;;;14.38;100.00;100042.13;5027497;28;20064;-78
2023/10/26 02:21:02;;;;;;;37.05;33.95;;;;;;;14.07;100.00;100046.22;5016158;28;20054;-79
2023/10/26 02:23:29;;;;;;;34.70;31.77;;;;;;;14.20;100.00;100043.22;5037406;28;20057;-79
2023/10/26 02:25:57;;;;;;;34.00;31.00;;;;;;;14.41;100.00;100045.09;5033762;28;20045;-79
2023/10/26 02:28:34;;;;;;;36.13;32.92;;;;;;;13.90;100.00;100048.91;5025007;28;20116;-79
2023/10/26 02:31:01;;;;;;;35.20;32.00;;;;;;;13.78;100.00;100051.66;5021579;28;20126;-78
2023/10/26 02:33:28;;;;;;;33.03;30.25;;;;;;;14.06;100.00;100052.63;5027123;28;20621;-78
2023/10/26 02:35:55;;;;;;;30.70;28.20;;;;;;;14.12;100.00;100063.13;5031595;28;20408;-79
2023/10/26 02:38:22;;;;;;;32.05;29.55;;;;;;;13.95;100.00;100073.03;5039107;28;20048;-79
2023/10/26 02:40:49;;;;;;;36.30;33.42;;;;;;;14.01;100.00;100073.91;5025585;28;20054;-78
2023/10/26 02:43:16;;;;;;;30.08;27.42;;;;;;;13.96;100.00;100066.63;5033598;28;20049;-78
2023/10/26 02:46:04;;;;;;;29.42;27.13;;;;;;;14.00;100.00;100072.28;5032966;28;20473;-78
2023/10/26 02:48:31;;;;;;;27.63;25.52;;;;;;;14.05;100.00;100078.50;5025597;28;20107;-79
2023/10/26 02:51:10;;;;;;;27.83;25.73;;;;;;;13.79;100.00;100069.28;5038139;28;20045;-73
2023/10/26 02:53:37;;;;;;;28.15;25.95;;;;;;;13.82;100.00;100057.31;5031006;28;20104;-74
2023/10/26 02:56:04;;;;;;;29.65;27.35;;;;;;;13.69;100.00;100056.59;5023520;28;20046;-74
2023/10/26 02:58:31;;;;;;;28.52;26.33;;;;;;;13.56;100.00;100061.47;5014244;28;20060;-75
2023/10/26 03:00:58;;;;;;;30.13;27.83;;;;;;;13.40;100.00;100061.16;5022546;28;20431;-73
2023/10/26 03:03:26;;;;;;;27.48;25.38;;;;;;;13.50;100.00;100053.34;5026626;28;20491;-74
2023/10/26 03:05:53;;;;;;;30.92;28.52;;;;;;;13.32;100.00;100058.91;5025768;28;20049;-74
2023/10/26 03:08:20;;;;;;;29.63;27.20;;;;;;;13.30;100.00;100061.00;5031383;28;20045;-75
2023/10/26 03:10:53;;;;;;;34.10;31.42;;;;;;;13.55;100.00;100049.16;5036652;28;20054;-75
2023/10/26 03:13:20;;;;;;;34.90;32.38;;;;;;;13.29;100.00;100060.19;5026162;28;20057;-74
2023/10/26 03:15:47;;;;;;;29.08;26.95;;;;;;;13.48;100.00;100063.44;5028073;28;20687;-74
2023/10/26 03:18:14;;;;;;;29.77;27.70;;;;;;;13.47;100.00;100069.84;5027962;28;20063;-74
2023/10/26 03:20:42;;;;;;;29.77;27.48;;;;;;;13.56;100.00;100064.13;5021535;28;20063;-74
2023/10/26 03:23:10;;;;;;;32.65;30.38;;;;;;;13.63;100.00;100062.09;5019504;28;20045;-74
2023/10/26 03:25:36;;;;;;;32.88;30.58;;;;;;;13.47;100.00;100061.84;5030451;28;20146;-74
2023/10/26 03:28:04;;;;;;;33.47;30.95;;;;;;;13.56;100.00;100056.13;5025774;28;20056;-74
2023/10/26 03:30:31;;;;;;;35.78;33.30;;;;;;;13.48;100.00;100054.66;5027151;28;20412;-74
2023/10/26 03:32:57;;;;;;;43.08;39.67;;;;;;;13.22;100.00;100066.69;5034814;28;20076;-74
2023/10/26 03:35:24;;;;;;;36.80;33.90;;;;;;;13.56;100.00;100056.13;5034485;28;20046;-74
2023/10/26 03:37:58;;;;;;;31.58;29.08;;;;;;;13.76;100.00;100048.44;5029262;28;20060;-73
2023/10/26 03:40:28;;;;;;;37.33;34.45;;;;;;;13.90;100.00;100054.25;5031272;28;20801;-74
2023/10/26 03:42:55;;;;;;;39.63;36.53;;;;;;;13.71;100.00;100048.38;5026096;28;20135;-74
2023/10/26 03:45:21;;;;;;;33.72;31.08;;;;;;;13.47;100.00;100048.50;5026432;28;20050;-74
2023/10/26 03:47:57;;;;;;;34.92;32.22;;;;;;;13.62;100.00;100047.16;5038534;28;20457;-74
2023/10/26 03:50:24;;;;;;;29.75;27.15;;;;;;;13.68;100.00;100046.19;5032440;28;20612;-74
2023/10/26 03:52:51;;;;;;;42.10;38.70;;;;;;;13.56;100.00;100048.91;5039287;28;20521;-73
2023/10/26 03:55:19;;;;;;;39.00;36.10;;;;;;;13.59;100.00;100042.28;5024145;28;20053;-73
2023/10/26 03:57:48;;;;;;;34.40;31.58;;;;;;;13.80;100.00;100032.72;5031357;28;20057;-74
2023/10/26 04:00:16;;;;;;;34.60;31.85;;;;;;;13.96;100.00;100034.59;5033874;28;20067;-73
2023/10/26 04:02:43;;;;;;;38.75;35.42;;;;;;;13.97;100.00;100034.34;5034694;28;20049;-73
2023/10/26 04:05:10;;;;;;;45.33;42.17;;;;;;;13.68;100.00;100025.63;5026250;28;20423;-73
2023/10/26 04:07:38;;;;;;;42.85;39.95;;;;;;;13.64;100.00;100016.47;5023696;28;20050;-73
2023/10/26 04:10:07;;;;;;;35.83;32.88;;;;;;;13.72;100.00;100018.75;5020818;28;20107;-73
2023/10/26 04:12:35;;;;;;;37.58;34.72;;;;;;;13.80;100.00;100020.22;5028425;28;20053;-74
2023/10/26 04:15:03;;;;;;;38.90;35.75;;;;;;;13.65;100.00;100025.31;5028851;28;20042;-73
2023/10/26 04:17:29;;;;;;;36.40;33.60;;;;;;;13.97;100.00;100025.53;5026279;28;20096;-74
2023/10/26 04:19:57;;;;;;;33.65;30.95;;;;;;;13.85;100.00;100033.63;5021925;28;20045;-74
2023/10/26 04:22:30;;;;;;;32.05;29.45;;;;;;;13.89;100.00;100036.63;5013557;28;20093;-73
2023/10/26 04:24:57;;;;;;;35.38;32.67;;;;;;;13.78;100.00;100048.19;5012424;28;20400;-79
2023/10/26 04:27:24;;;;;;;31.70;28.98;;;;;;;13.73;100.00;100032.91;5016910;28;20053;-74
2023/10/26 04:29:55;;;;;;;29.80;27.40;;;;;;;13.82;100.00;100041.31;5016758;28;20494;-73
2023/10/26 04:32:22;;;;;;;32.50;29.80;;;;;;;13.70;100.00;100034.19;5019720;28;20045;-73
2023/10/26 04:34:56;;;;;;;43.95;39.80;;;;;;;13.83;100.00;100033.06;5017999;28;20734;-73
2023/10/26 04:37:24;;;;;;;38.10;34.88;;;;;;;13.90;100.00;100024.91;5019689;28;20072;-74
2023/10/26 04:39:53;;;;;;;37.00;34.03;;;;;;;13.96;100.00;100016.72;5024472;28;20495;-73
2023/10/26 04:42:30;;;;;;;30.75;28.52;;;;;;;13.77;100.00;100012.69;5021821;28;20050;-74
2023/10/26 04:44:58;;;;;;;30.13;27.92;;;;;;;13.69;100.00;100019.25;5020090;28;20042;-74
2023/10/26 04:47:25;;;;;;;28.73;26.73;;;;;;;13.74;100.00;100022.00;5024121;28;20049;-73
2023/10/26 04:49:52;;;;;;;29.02;26.88;;;;;;;13.86;100.00;100024.56;5022458;28;20053;-73
2023/10/26 04:52:25;;;;;;;29.17;26.77;;;;;;;13.59;100.00;100028.97;5018431;28;20053;-74
2023/10/26 04:54:51;;;;;;;;;;;;;;;13.85;100.00;100038.16;5015109;28;20442;-74
2023/10/26 04:57:25;;;;;;;24.90;23.10;;;;;;;13.86;100.00;100024.56;5021881;28;20008;-74
2023/10/26 04:59:52;;;;;;;24.70;22.90;;;;;;;13.89;100.00;100029.44;5030493;28;20048;-73
2023/10/26 05:02:20;;;;;;;25.33;23.60;;;;;;;14.08;100.00;100015.81;5032707;28;20045;-74
2023/10/26 05:04:47;;;;;;;28.05;25.80;;;;;;;14.09;100.00;100025.44;5018377;28;20049;-74
2023/10/26 05:07:22;;;;;;;26.42;24.55;;;;;;;14.26;100.00;100039.56;5025387;28;20049;-73
2023/10/26 05:09:49;;;;;;;27.70;25.50;;;;;;;14.57;100.00;100035.44;5025282;28;20042;-74
2023/10/26 05:12:16;;;;;;;27.80;25.77;;;;;;;14.86;100.00;100037.94;5029447;28;20450;-74
2023/10/26 05:14:43;;;;;;;28.30;26.20;;;;;;;15.05;100.00;100033.84;5027858;28;20058;-74
2023/10/26 05:17:10;;;;;;;26.45;24.45;;;;;;;14.97;100.00;100036.16;5028359;28;20041;-74
2023/10/26 05:19:38;;;;;;;27.33;25.10;;;;;;;15.27;100.00;100043.69;5024383;28;20049;-74
2023/10/26 05:22:07;;;;;;;28.65;26.55;;;;;;;15.74;100.00;100045.75;5022988;28;20045;-75
2023/10/26 05:24:34;;;;;;;28.23;25.98;;;;;;;16.01;100.00;100053.69;5018599;28;20069;-74
2023/10/26 05:27:01;;;;;;;31.50;29.40;;;;;;;16.25;100.00;100056.81;5021808;28;20065;-74
2023/10/26 05:29:29;;;;;;;31.70;29.50;;;;;;;16.44;100.00;100051.81;5022112;28;20490;-74
2023/10/26 05:31:56;;;;;;;31.40;29.20;;;;;;;16.54;100.00;100057.19;5022164;28;20054;-74
2023/10/26 05:34:23;;;;;;;32.60;30.40;;;;;;;16.86;100.00;100062.47;5019579;28;20053;-74
2023/10/26 05:36:51;;;;;;;32.85;30.65;;;;;;;16.96;100.00;100067.03;5016662;28;20048;-74
2023/10/26 05:39:19;;;;;;;34.47;29.92;;;;;;;17.10;100.00;100070.06;5015331;28;20534;-74
2023/10/26 05:41:47;;;;;;;38.22;35.72;;;;;;;17.26;100.00;100055.59;5027058;28;20072;-74
2023/10/26 05:44:14;;;;;;;34.40;32.10;;;;;;;17.24;100.00;100060.41;5021348;28;20507;-74
2023/10/26 05:46:41;;;;;;;31.60;29.48;;;;;;;17.36;100.00;100062.84;5027491;28;20061;-74
2023/10/26 05:49:08;;;;;;;27.67;25.58;;;;;;;17.24;100.00;100071.13;5015406;28;20076;-74
2023/10/26 05:51:34;;;;;;;33.10;30.65;;;;;;;17.32;100.00;100065.25;5017652;28;20107;-74
2023/10/26 05:54:03;;;;;;;29.88;27.77;;;;;;;17.29;100.00;100059.63;5014878;28;20061;-74
2023/10/26 05:56:30;;;;;;;31.95;29.75;;;;;;;17.36;100.00;100063.63;5024576;28;20064;-74
2023/10/26 05:58:56;;;;;;;31.92;29.73;;;;;;;17.35;100.00;100058.56;5017910;28;20057;-79
2023/10/26 06:01:35;;;;;;;31.02;28.92;;;;;;;17.49;100.00;100062.34;5016608;28;20050;-74
2023/10/26 06:04:02;;;;;;;33.80;30.88;;;;;;;17.60;100.00;100068.50;5023441;28;20056;-74
2023/10/26 06:06:29;;;;;;;32.05;29.42;;;;;;;17.44;100.00;100072.25;5010382;28;20579;-74
2023/10/26 06:08:59;;;;;;;34.42;30.88;;;;;;;16.96;100.00;100075.09;5011667;28;20045;-74
2023/10/26 06:11:27;;;;;;;32.17;29.88;;;;;;;17.18;100.00;100074.88;5014712;28;20049;-74
2023/10/26 06:13:54;;;;;;;31.50;29.30;;;;;;;17.48;100.00;100074.13;5022100;28;20448;-74
2023/10/26 06:16:21;;;;;;;32.42;30.08;;;;;;;17.31;100.00;100073.59;5017164;28;20503;-74
2023/10/26 06:18:50;;;;;;;31.38;29.08;;;;;;;17.68;100.00;100067.16;5022853;28;20110;-74
2023/10/26 06:21:17;;;;;;;35.67;32.97;;;;;;;17.84;100.00;100066.13;5018009;28;20050;-78
2023/10/26 06:23:47;;;;;;;34.92;31.63;;;;;;;17.93;100.00;100058.31;5014204;28;20495;-79
2023/10/26 06:26:14;;;;;;;32.42;29.92;;;;;;;18.22;100.00;100067.41;5013879;28;20050;-79
2023/10/26 06:28:42;;;;;;;31.60;29.15;;;;;;;18.33;100.00;100056.63;5014331;28;20049;-79
2023/10/26 06:31:10;;;;;;;32.20;29.80;;;;;;;18.54;100.00;100056.28;5008560;28;20046;-79
2023/10/26 06:33:37;;;;;;;30.50;28.38;;;;;;;18.71;100.00;100047.09;5018939;28;20058;-79
2023/10/26 06:36:14;;;;;;;44.50;32.42;;;;;;;19.04;100.00;100048.28;5020957;28;20041;-79
2023/10/26 06:38:41;;;;;;;32.88;30.48;;;;;;;19.33;100.00;100050.25;5015204;28;20049;-78
2023/10/26 06:41:09;;;;;;;28.75;26.75;;;;;;;19.60;100.00;100055.16;5026190;28;20667;-79
2023/10/26 06:43:37;;;;;;;36.33;34.13;;;;;;;19.74;100.00;100060.75;5018655;28;20060;-79
2023/10/26 06:46:06;;;;;;;28.40;26.50;;;;;;;19.65;100.00;100058.66;5023773;28;20058;-79
2023/10/26 06:48:33;;;;;;;32.00;29.90;;;;;;;19.49;100.00;100067.13;5030413;28;20061;-79
2023/10/26 06:51:01;;;;;;;30.42;28.20;;;;;;;19.43;100.00;100069.03;5020698;28;20431;-79
2023/10/26 06:53:28;;;;;;;28.77;26.63;;;;;;;19.75;100.00;100075.81;5025162;28;20446;-79
2023/10/26 06:55:55;;;;;;;27.30;25.40;;;;;;;19.68;100.00;100079.66;5027230;28;20059;-79
2023/10/26 06:58:23;;;;;;;37.42;25.10;;;;;;;19.78;100.00;100073.38;5026488;28;20057;-78
2023/10/26 07:00:50;;;;;;;27.38;25.58;;;;;;;20.00;100.00;100081.00;5017676;28;20049;-74
2023/10/26 07:03:18;;;;;;;31.55;28.95;;;;;;;20.13;100.00;100085.72;5018081;28;20056;-74
2023/10/26 07:05:47;;;;;;;26.10;24.10;;;;;;;20.36;100.00;100076.06;5021021;28;20496;-74
2023/10/26 07:08:14;;;;;;;26.55;24.65;;;;;;;20.57;100.00;100065.03;5022375;28;20045;-74
2023/10/26 07:10:42;;;;;;;26.80;25.00;;;;;;;20.58;100.00;100059.38;5017774;28;20049;-74
2023/10/26 07:13:16;;;;;;;28.63;26.60;;;;;;;20.48;100.00;100054.06;5017797;28;20049;-75
2023/10/26 07:15:43;;;;;;;28.40;26.52;;;;;;;20.51;100.00;100056.16;5020361;28;20054;-74
2023/10/26 07:18:10;;;;;;;28.20;26.00;;;;;;;20.59;100.00;100052.88;5019414;28;20053;-74
2023/10/26 07:20:40;;;;;;;28.33;26.42;;;;;;;20.55;100.00;100054.56;5022034;28;20053;-75
2023/10/26 07:23:08;;;;;;;25.67;23.98;;;;;;;20.54;100.00;100052.94;5022361;28;20057;-75
2023/10/26 07:25:36;;;;;;;26.70;24.77;;;;;;;20.41;100.00;100059.00;5024815;28;20057;-75
2023/10/26 07:28:05;;;;;;;24.10;22.23;;;;;;;20.45;100.00;100056.53;5025387;28;20139;-74
2023/10/26 07:30:32;;;;;;;27.63;25.48;;;;;;;20.44;100.00;100053.03;5024015;28;20844;-74
2023/10/26 07:32:59;;;;;;;21.80;20.30;;;;;;;20.51;100.00;100050.78;5018829;28;20081;-74
2023/10/26 07:35:26;;;;;;;23.85;22.25;;;;;;;20.51;100.00;100058.88;5022898;28;20121;-79
2023/10/26 07:37:54;;;;;;;24.83;23.13;;;;;;;20.49;100.00;100054.88;5027440;28;20431;-74
2023/10/26 07:40:30;;;;;;;24.05;22.25;;;;;;;20.67;100.00;100056.84;5026225;28;20053;-74
2023/10/26 07:42:57;;;;;;;23.02;21.42;;;;;;;20.58;100.00;100063.97;5028743;28;20461;-75
2023/10/26 07:45:25;;;;;;;24.88;22.55;;;;;;;20.80;100.00;100072.31;5021237;28;20433;-74
2023/10/26 07:47:52;;;;;;;22.38;20.88;;;;;;;20.86;100.00;100073.06;5023830;28;20607;-75
2023/10/26 07:50:31;;;;;;;23.38;21.77;;;;;;;20.94;100.00;100072.41;5025947;28;20056;-75
2023/10/26 07:53:31;;;;;;;23.45;21.75;;;;;;;20.94;100.00;100071.63;5019580;28;20058;-74
2023/10/26 07:55:58;;;;;;;22.60;20.85;;;;;;;21.00;100.00;100073.97;4968575;28;20055;-75
2023/10/26 07:58:27;;;;;;;22.77;20.98;;;;;;;21.14;100.00;100075.91;5013918;28;20053;-79
2023/10/26 08:00:53;;;;;;;22.90;21.20;;;;;;;21.26;100.00;100062.78;5017225;28;20808;-79
2023/10/26 08:03:20;;;;;;;23.50;21.70;;;;;;;21.65;100.00;100069.78;5013990;28;20096;-74
2023/10/26 08:05:56;;;;;;;23.95;22.08;;;;;;;22.03;100.00;100069.66;5025634;28;20522;-74
2023/10/26 08:08:23;;;;;;;23.70;21.80;;;;;;;21.87;100.00;100069.94;5017113;28;20058;-78
2023/10/26 08:10:51;;;;;;;23.73;21.92;;;;;;;21.91;100.00;100075.56;5021071;28;20053;-79
2023/10/26 08:13:18;;;;;;;23.75;21.95;;;;;;;21.43;100.00;100084.72;5021998;28;20053;-79
2023/10/26 08:15:52;;;;;;;24.52;22.83;;;;;;;21.23;100.00;100076.88;5015871;28;20057;-79
2023/10/26 08:18:20;;;;;;;24.67;22.98;;;;;;;21.24;100.00;100070.38;5019989;28;20042;-78
2023/10/26 08:20:51;;;;;;;41.67;23.55;;;;;;;21.44;100.00;100072.78;5025457;28;20041;-78
2023/10/26 08:23:29;;;;;;;25.45;23.70;;;;;;;21.54;100.00;100073.72;5015545;28;20136;-79
2023/10/26 08:26:07;;;;;;;24.75;23.05;;;;;;;21.63;100.00;100080.88;5022928;28;20147;-79
2023/10/26 08:28:34;;;;;;;22.40;20.90;;;;;;;21.43;100.00;100073.09;5015950;28;20053;-79
2023/10/26 08:31:01;;;;;;;24.85;23.35;;;;;;;21.75;100.00;100075.00;5020157;28;20056;-79
2023/10/26 08:33:39;;;;;;;22.85;21.35;;;;;;;21.79;100.00;100069.84;5017945;28;20199;-79
2023/10/26 08:36:08;;;;;;;23.60;22.00;;;;;;;21.81;100.00;100070.31;5015562;28;20045;-79
2023/10/26 08:38:35;;;;;;;24.13;22.52;;;;;;;21.85;100.00;100074.06;5021764;28;20061;-79
2023/10/26 08:41:02;;;;;;;24.83;22.52;;;;;;;21.60;100.00;100075.25;5027309;28;20115;-78
2023/10/26 08:43:43;;;;;;;24.77;23.27;;;;;;;21.67;100.00;100070.28;5023815;28;20045;-79
2023/10/26 08:46:12;;;;;;;25.20;23.60;;;;;;;21.76;100.00;100073.13;5005668;28;20140;-79
2023/10/26 08:48:42;;;;;;;27.98;26.33;;;;;;;21.78;100.00;100076.31;5013595;28;20062;-79
2023/10/26 08:51:09;;;;;;;25.63;24.10;;;;;;;22.04;100.00;100072.09;5015894;28;20054;-79
2023/10/26 08:53:35;;;;;;;24.60;23.00;;;;;;;22.03;100.00;100058.84;5019751;28;20187;-79
2023/10/26 08:56:03;;;;;;;25.63;23.77;;;;;;;21.76;100.00;100055.00;5020768;28;20057;-79
2023/10/26 08:58:30;;;;;;;23.42;21.83;;;;;;;22.26;100.00;100067.94;5018831;28;20050;-79
2023/10/26 09:01:01;;;;;;;23.75;22.25;;;;;;;22.53;100.00;100057.13;5022125;28;20427;-78
2023/10/26 09:03:27;;;;;;;23.80;22.15;;;;;;;22.72;100.00;100058.91;5022555;28;20058;-79
2023/10/26 09:05:55;;;;;;;24.05;22.52;;;;;;;22.38;100.00;100062.81;5010306;28;20064;-79
2023/10/26 09:08:24;;;;;;;22.90;21.50;;;;;;;22.20;100.00;100067.22;5019339;28;20045;-79
2023/10/26 09:10:52;;;;;;;23.15;21.75;;;;;;;22.23;100.00;100065.81;5014782;28;20049;-74
2023/10/26 09:13:24;;;;;;;25.52;23.88;;;;;;;22.27;100.00;100062.25;5023759;28;20050;-74
2023/10/26 09:15:54;;;;;;;23.73;22.23;;;;;;;22.40;100.00;100061.44;5012862;28;20045;-74
2023/10/26 09:18:23;;;;;;;30.50;22.98;;;;;;;22.32;100.00;100053.22;5022214;28;20046;-74
2023/10/26 09:21:05;;;;;;;23.05;21.55;;;;;;;22.37;100.00;100055.81;5020845;28;20058;-74
2023/10/26 09:23:40;;;;;;;23.88;22.38;;;;;;;22.29;100.00;100057.31;5013563;28;20511;-75
2023/10/26 09:26:09;;;;;;;25.23;23.58;;;;;;;22.22;100.00;100056.13;5017100;28;20140;-74
2023/10/26 09:28:50;;;;;;;21.33;20.13;;;;;;;22.11;100.00;100055.47;5011893;28;20060;-74
2023/10/26 09:31:18;;;;;;;24.52;22.92;;;;;;;21.96;100.00;100053.84;5022031;28;20071;-74
2023/10/26 09:33:46;;;;;;;22.95;21.63;;;;;;;22.14;100.00;100050.25;5016735;28;20061;-74
2023/10/26 09:36:14;;;;;;;22.08;20.75;;;;;;;22.02;100.00;100041.03;5017974;28;20046;-74
2023/10/26 09:38:42;;;;;;;21.50;20.20;;;;;;;21.89;100.00;100035.31;5025196;28;20072;-74
2023/10/26 09:41:15;;;;;;;29.30;26.52;;;;;;;21.95;100.00;100039.53;5021832;28;20049;-74
2023/10/26 09:43:42;;;;;;;25.17;23.67;;;;;;;22.05;100.00;100029.63;5022514;28;20049;-74
2023/10/26 09:46:10;;;;;;;24.77;23.48;;;;;;;22.18;100.00;100031.59;5014974;28;20061;-75
2023/10/26 09:48:40;;;;;;;26.10;24.70;;;;;;;22.21;100.00;100032.84;5016980;28;20071;-75
2023/10/26 09:51:13;;;;;;;21.92;20.63;;;;;;;21.90;100.00;100020.69;5017111;28;20054;-74
2023/10/26 09:53:44;;;;;;;23.50;22.20;;;;;;;21.93;100.00;100020.09;5025454;28;20795;-75
2023/10/26 09:56:16;;;;;;;26.80;25.20;;;;;;;21.91;100.00;100013.41;5015195;28;20046;-75
2023/10/26 09:58:54;;;;;;;34.53;32.75;;;;;;;22.14;100.00;100006.19;5016133;28;20048;-75
2023/10/26 10:01:41;;;;;;;27.13;25.73;;;;;;;22.20;100.00;100010.44;5023644;28;20050;-74
2023/10/26 10:04:13;;;;;;;26.10;24.63;;;;;;;22.12;100.00;100001.09;5010896;28;20052;-75
2023/10/26 10:06:54;;;;;;;30.33;28.05;;;;;;;22.22;100.00;99996.63;5018819;28;20049;-75
2023/10/26 10:09:23;;;;;;;29.90;28.10;;;;;;;22.14;100.00;100001.56;5021987;28;20054;-75
2023/10/26 10:12:28;;;;;;;27.02;25.52;;;;;;;22.12;100.00;100011.91;5017622;28;20057;-74
2023/10/26 10:15:03;;;;;;;28.50;25.75;;;;;;;22.23;100.00;100006.31;5025168;28;20056;-74
2023/10/26 10:18:11;;;;;;;28.60;26.90;;;;;;;22.16;100.00;99999.41;5025899;28;20063;-74
2023/10/26 10:20:41;;;;;;;24.98;23.40;;;;;;;22.06;100.00;99993.34;5028518;28;20108;-74
2023/10/26 10:23:28;;;;;;;24.80;23.20;;;;;;;22.32;100.00;99994.50;5018169;28;20443;-75
2023/10/26 10:26:01;;;;;;;25.25;23.65;;;;;;;22.54;100.00;99990.25;5015292;28;20104;-74
2023/10/26 10:28:40;;;;;;;24.73;23.13;;;;;;;22.30;100.00;99995.91;5015013;28;20083;-74
2023/10/26 10:31:24;;;;;;;24.38;22.77;;;;;;;22.30;100.00;99996.72;5029413;28;20107;-74
2023/10/26 10:34:02;;;;;;;25.15;23.55;;;;;;;22.28;100.00;99987.31;5021769;28;20057;-74
2023/10/26 10:37:10;;;;;;;29.58;27.70;;;;;;;23.05;100.00;99973.72;5016314;28;20164;-74
2023/10/26 10:40:14;;;;;;;25.80;24.00;;;;;;;24.75;100.00;99970.00;5030662;28;20127;-74
2023/10/26 10:42:42;;;;;;;24.25;22.55;;;;;;;26.78;100.00;99963.25;5024499;28;20955;-74
2023/10/26 10:45:12;;;;;;;26.27;24.58;;;;;;;25.81;100.00;99967.63;5026118;28;20052;-74
2023/10/26 10:47:51;;;;;;;26.30;24.50;;;;;;;26.31;100.00;99963.41;5030308;28;20053;-74
2023/10/26 10:50:20;;;;;;;34.83;32.78;;;;;;;25.76;100.00;99957.72;5019387;28;20050;-74
2023/10/26 10:52:48;;;;;;;29.88;28.08;;;;;;;26.45;100.00;99950.34;5024327;28;20053;-74
2023/10/26 10:55:24;;;;;;;31.70;29.85;;;;;;;28.20;100.00;99956.50;5020986;28;20053;-74
2023/10/26 10:57:58;;;;;;;27.95;26.15;;;;;;;28.14;100.00;99954.31;5029640;28;20053;-74
2023/10/26 11:00:25;;;;;;;28.65;26.95;;;;;;;28.16;98.95;99957.50;5023698;28;20065;-74
2023/10/26 11:02:57;;;;;;;27.90;26.30;;;;;;;29.32;85.06;99955.03;5035444;28;20533;-74
2023/10/26 11:05:36;;;;;;;30.38;28.58;;;;;;;30.12;78.63;99941.00;5025934;28;20041;-74
2023/10/26 11:08:03;;;;;;;33.13;31.13;;;;;;;30.01;72.77;99933.69;5024344;28;20048;-75
2023/10/26 11:10:31;;;;;;;31.23;29.42;;;;;;;28.14;83.56;99932.47;5024659;28;20061;-74
2023/10/26 11:12:58;;;;;;;28.90;26.95;;;;;;;30.36;77.98;99925.53;5013552;28;20057;-74
2023/10/26 11:15:32;;;;;;;30.05;28.25;;;;;;;31.31;66.04;99927.78;5013624;28;20137;-74